sensor_id;sensor_type;location;lat;lon;timestamp;P1;durP1;ratioP1;P2;durP2;ratioP2
7683;SDS011;3884;48.616;12.872;2022-10-30T00:01:00;14.67;;;10.53;;
7683;SDS011;3884;48.616;12.872;2022-10-30T00:03:27;14.67;;;10.90;;
7683;SDS011;3884;48.616;12.872;2022-10-30T00:05:54;15.07;;;11.10;;
7683;SDS011;3884;48.616;12.872;2022-10-30T00:08:23;16.53;;;11.43;;
7683;SDS011;3884;48.616;12.872;2022-10-30T00:10:50;12.20;;;9.87;;
7683;SDS011;3884;48.616;12.872;2022-10-30T00:13:18;14.63;;;10.23;;
7683;SDS011;3884;48.616;12.872;2022-10-30T00:15:47;15.60;;;9.90;;
7683;SDS011;3884;48.616;12.872;2022-10-30T00:18:15;16.37;;;10.13;;
7683;SDS011;3884;48.616;12.872;2022-10-30T00:20:42;11.03;;;9.17;;
7683;SDS011;3884;48.616;12.872;2022-10-30T00:23:09;13.73;;;9.73;;
7683;SDS011;3884;48.616;12.872;2022-10-30T00:25:37;14.07;;;9.43;;
7683;SDS011;3884;48.616;12.872;2022-10-30T00:28:05;13.67;;;10.57;;
7683;SDS011;3884;48.616;12.872;2022-10-30T00:30:33;11.17;;;10.00;;
7683;SDS011;3884;48.616;12.872;2022-10-30T00:33:01;13.47;;;9.47;;
7683;SDS011;3884;48.616;12.872;2022-10-30T00:35:28;12.40;;;10.00;;
7683;SDS011;3884;48.616;12.872;2022-10-30T00:37:56;20.07;;;10.00;;
7683;SDS011;3884;48.616;12.872;2022-10-30T00:40:23;17.33;;;10.20;;
7683;SDS011;3884;48.616;12.872;2022-10-30T00:42:51;15.07;;;10.23;;
7683;SDS011;3884;48.616;12.872;2022-10-30T00:45:19;10.97;;;9.80;;
7683;SDS011;3884;48.616;12.872;2022-10-30T00:47:48;14.77;;;10.57;;
7683;SDS011;3884;48.616;12.872;2022-10-30T00:50:19;13.87;;;10.00;;
7683;SDS011;3884;48.616;12.872;2022-10-30T00:52:50;13.43;;;9.00;;
7683;SDS011;3884;48.616;12.872;2022-10-30T00:55:21;13.63;;;9.00;;
7683;SDS011;3884;48.616;12.872;2022-10-30T00:57:54;16.47;;;10.50;;
7683;SDS011;3884;48.616;12.872;2022-10-30T01:00:21;12.03;;;9.57;;
7683;SDS011;3884;48.616;12.872;2022-10-30T01:02:52;18.20;;;11.53;;
7683;SDS011;3884;48.616;12.872;2022-10-30T01:05:20;14.07;;;9.63;;
7683;SDS011;3884;48.616;12.872;2022-10-30T01:07:50;10.87;;;9.07;;
7683;SDS011;3884;48.616;12.872;2022-10-30T01:10:17;12.17;;;9.57;;
7683;SDS011;3884;48.616;12.872;2022-10-30T01:12:45;16.27;;;9.27;;
7683;SDS011;3884;48.616;12.872;2022-10-30T01:15:15;13.77;;;10.80;;
7683;SDS011;3884;48.616;12.872;2022-10-30T01:18:01;13.47;;;11.27;;
7683;SDS011;3884;48.616;12.872;2022-10-30T01:20:52;14.27;;;12.00;;
7683;SDS011;3884;48.616;12.872;2022-10-30T01:23:34;13.20;;;10.80;;
7683;SDS011;3884;48.616;12.872;2022-10-30T01:26:10;11.77;;;9.10;;
7683;SDS011;3884;48.616;12.872;2022-10-30T01:28:49;14.57;;;9.73;;
7683;SDS011;3884;48.616;12.872;2022-10-30T01:31:36;13.27;;;10.47;;
7683;SDS011;3884;48.616;12.872;2022-10-30T01:34:14;13.93;;;10.93;;
7683;SDS011;3884;48.616;12.872;2022-10-30T01:36:45;16.00;;;11.30;;
7683;SDS011;3884;48.616;12.872;2022-10-30T01:39:21;15.00;;;11.10;;
7683;SDS011;3884;48.616;12.872;2022-10-30T01:41:51;17.17;;;10.83;;
7683;SDS011;3884;48.616;12.872;2022-10-30T01:44:19;12.20;;;10.47;;
7683;SDS011;3884;48.616;12.872;2022-10-30T01:47:06;51.63;;;43.70;;
7683;SDS011;3884;48.616;12.872;2022-10-30T01:50:02;20.07;;;14.37;;
7683;SDS011;3884;48.616;12.872;2022-10-30T01:52:41;15.97;;;11.53;;
7683;SDS011;3884;48.616;12.872;2022-10-30T01:55:17;16.10;;;10.73;;
7683;SDS011;3884;48.616;12.872;2022-10-30T01:58:05;17.87;;;11.07;;
7683;SDS011;3884;48.616;12.872;2022-10-30T02:00:40;18.00;;;12.17;;
7683;SDS011;3884;48.616;12.872;2022-10-30T02:03:12;14.10;;;11.77;;
7683;SDS011;3884;48.616;12.872;2022-10-30T02:05:41;15.40;;;11.93;;
7683;SDS011;3884;48.616;12.872;2022-10-30T02:08:12;14.03;;;10.33;;
7683;SDS011;3884;48.616;12.872;2022-10-30T02:10:40;13.50;;;10.73;;
7683;SDS011;3884;48.616;12.872;2022-10-30T02:13:09;15.37;;;9.80;;
7683;SDS011;3884;48.616;12.872;2022-10-30T02:15:36;15.87;;;10.70;;
7683;SDS011;3884;48.616;12.872;2022-10-30T02:18:04;18.90;;;12.43;;
7683;SDS011;3884;48.616;12.872;2022-10-30T02:20:32;14.90;;;11.07;;
7683;SDS011;3884;48.616;12.872;2022-10-30T02:23:00;19.33;;;12.90;;
7683;SDS011;3884;48.616;12.872;2022-10-30T02:25:32;14.23;;;10.80;;
7683;SDS011;3884;48.616;12.872;2022-10-30T02:27:59;12.27;;;10.90;;
7683;SDS011;3884;48.616;12.872;2022-10-30T02:30:29;15.60;;;11.83;;
7683;SDS011;3884;48.616;12.872;2022-10-30T02:32:56;13.83;;;11.33;;
7683;SDS011;3884;48.616;12.872;2022-10-30T02:35:23;17.57;;;11.83;;
7683;SDS011;3884;48.616;12.872;2022-10-30T02:37:52;20.00;;;13.17;;
7683;SDS011;3884;48.616;12.872;2022-10-30T02:40:19;18.30;;;12.97;;
7683;SDS011;3884;48.616;12.872;2022-10-30T02:42:50;17.77;;;12.27;;
7683;SDS011;3884;48.616;12.872;2022-10-30T02:45:17;16.73;;;11.00;;
7683;SDS011;3884;48.616;12.872;2022-10-30T02:47:45;13.43;;;10.77;;
7683;SDS011;3884;48.616;12.872;2022-10-30T02:50:13;11.10;;;10.00;;
7683;SDS011;3884;48.616;12.872;2022-10-30T02:52:40;16.60;;;10.97;;
7683;SDS011;3884;48.616;12.872;2022-10-30T02:55:09;13.93;;;10.23;;
7683;SDS011;3884;48.616;12.872;2022-10-30T02:57:37;15.00;;;10.87;;
7683;SDS011;3884;48.616;12.872;2022-10-30T03:00:05;16.07;;;11.43;;
7683;SDS011;3884;48.616;12.872;2022-10-30T03:02:33;18.43;;;12.47;;
7683;SDS011;3884;48.616;12.872;2022-10-30T03:05:00;20.03;;;11.93;;
7683;SDS011;3884;48.616;12.872;2022-10-30T03:07:27;18.43;;;12.50;;
7683;SDS011;3884;48.616;12.872;2022-10-30T03:09:54;17.97;;;12.53;;
7683;SDS011;3884;48.616;12.872;2022-10-30T03:12:23;16.40;;;12.23;;
7683;SDS011;3884;48.616;12.872;2022-10-30T03:14:50;17.33;;;11.80;;
7683;SDS011;3884;48.616;12.872;2022-10-30T03:17:18;20.27;;;13.03;;
7683;SDS011;3884;48.616;12.872;2022-10-30T03:19:47;15.27;;;11.40;;
7683;SDS011;3884;48.616;12.872;2022-10-30T03:22:15;13.53;;;11.13;;
7683;SDS011;3884;48.616;12.872;2022-10-30T03:24:42;14.57;;;11.93;;
7683;SDS011;3884;48.616;12.872;2022-10-30T03:27:09;17.27;;;11.07;;
7683;SDS011;3884;48.616;12.872;2022-10-30T03:29:39;14.30;;;10.53;;
7683;SDS011;3884;48.616;12.872;2022-10-30T03:32:07;13.60;;;10.80;;
7683;SDS011;3884;48.616;12.872;2022-10-30T03:34:43;16.40;;;11.47;;
7683;SDS011;3884;48.616;12.872;2022-10-30T03:37:10;14.40;;;10.40;;
7683;SDS011;3884;48.616;12.872;2022-10-30T03:39:37;12.47;;;10.27;;
7683;SDS011;3884;48.616;12.872;2022-10-30T03:42:04;16.50;;;10.20;;
7683;SDS011;3884;48.616;12.872;2022-10-30T03:44:31;13.30;;;10.23;;
7683;SDS011;3884;48.616;12.872;2022-10-30T03:47:00;17.73;;;10.47;;
7683;SDS011;3884;48.616;12.872;2022-10-30T03:49:45;14.97;;;9.53;;
7683;SDS011;3884;48.616;12.872;2022-10-30T03:52:16;13.33;;;9.77;;
7683;SDS011;3884;48.616;12.872;2022-10-30T03:54:43;17.17;;;10.87;;
7683;SDS011;3884;48.616;12.872;2022-10-30T03:57:14;13.57;;;10.57;;
7683;SDS011;3884;48.616;12.872;2022-10-30T04:00:04;13.43;;;10.13;;
7683;SDS011;3884;48.616;12.872;2022-10-30T04:02:54;14.87;;;12.03;;
7683;SDS011;3884;48.616;12.872;2022-10-30T04:05:23;20.63;;;12.50;;
7683;SDS011;3884;48.616;12.872;2022-10-30T04:07:56;17.27;;;11.73;;
7683;SDS011;3884;48.616;12.872;2022-10-30T04:10:25;19.30;;;13.17;;
7683;SDS011;3884;48.616;12.872;2022-10-30T04:12:58;15.73;;;12.10;;
7683;SDS011;3884;48.616;12.872;2022-10-30T04:15:26;15.80;;;11.20;;
7683;SDS011;3884;48.616;12.872;2022-10-30T04:17:55;13.93;;;9.50;;
7683;SDS011;3884;48.616;12.872;2022-10-30T04:20:23;12.47;;;9.97;;
7683;SDS011;3884;48.616;12.872;2022-10-30T04:22:54;16.07;;;10.43;;
7683;SDS011;3884;48.616;12.872;2022-10-30T04:25:22;15.40;;;10.80;;
7683;SDS011;3884;48.616;12.872;2022-10-30T04:27:50;17.10;;;10.80;;
7683;SDS011;3884;48.616;12.872;2022-10-30T04:30:19;11.57;;;9.77;;
7683;SDS011;3884;48.616;12.872;2022-10-30T04:32:49;16.37;;;9.87;;
7683;SDS011;3884;48.616;12.872;2022-10-30T04:35:22;15.33;;;10.40;;
7683;SDS011;3884;48.616;12.872;2022-10-30T04:37:51;14.40;;;9.63;;
7683;SDS011;3884;48.616;12.872;2022-10-30T04:40:18;15.70;;;9.40;;
7683;SDS011;3884;48.616;12.872;2022-10-30T04:42:52;16.20;;;9.80;;
7683;SDS011;3884;48.616;12.872;2022-10-30T04:45:19;13.23;;;9.13;;
7683;SDS011;3884;48.616;12.872;2022-10-30T04:47:47;11.30;;;8.87;;
7683;SDS011;3884;48.616;12.872;2022-10-30T04:50:15;15.07;;;9.23;;
7683;SDS011;3884;48.616;12.872;2022-10-30T04:52:44;17.13;;;11.70;;
7683;SDS011;3884;48.616;12.872;2022-10-30T04:55:11;17.17;;;11.80;;
7683;SDS011;3884;48.616;12.872;2022-10-30T04:57:40;15.90;;;11.83;;
7683;SDS011;3884;48.616;12.872;2022-10-30T05:00:09;16.07;;;12.00;;
7683;SDS011;3884;48.616;12.872;2022-10-30T05:02:37;17.87;;;13.20;;
7683;SDS011;3884;48.616;12.872;2022-10-30T05:05:04;20.30;;;13.13;;
7683;SDS011;3884;48.616;12.872;2022-10-30T05:07:32;22.10;;;13.60;;
7683;SDS011;3884;48.616;12.872;2022-10-30T05:10:01;20.87;;;12.20;;
7683;SDS011;3884;48.616;12.872;2022-10-30T05:12:28;15.67;;;11.53;;
7683;SDS011;3884;48.616;12.872;2022-10-30T05:14:55;16.37;;;12.37;;
7683;SDS011;3884;48.616;12.872;2022-10-30T05:17:23;15.80;;;11.40;;
7683;SDS011;3884;48.616;12.872;2022-10-30T05:19:50;15.33;;;11.17;;
7683;SDS011;3884;48.616;12.872;2022-10-30T05:22:19;13.73;;;11.40;;
7683;SDS011;3884;48.616;12.872;2022-10-30T05:24:46;17.13;;;11.70;;
7683;SDS011;3884;48.616;12.872;2022-10-30T05:27:15;14.23;;;10.63;;
7683;SDS011;3884;48.616;12.872;2022-10-30T05:29:42;16.33;;;10.53;;
7683;SDS011;3884;48.616;12.872;2022-10-30T05:32:09;17.70;;;11.27;;
7683;SDS011;3884;48.616;12.872;2022-10-30T05:34:46;17.10;;;9.80;;
7683;SDS011;3884;48.616;12.872;2022-10-30T05:37:17;14.53;;;9.47;;
7683;SDS011;3884;48.616;12.872;2022-10-30T05:39:45;14.00;;;9.57;;
7683;SDS011;3884;48.616;12.872;2022-10-30T05:42:26;14.70;;;10.87;;
7683;SDS011;3884;48.616;12.872;2022-10-30T05:44:57;15.53;;;11.03;;
7683;SDS011;3884;48.616;12.872;2022-10-30T05:47:24;16.97;;;11.67;;
7683;SDS011;3884;48.616;12.872;2022-10-30T05:49:54;17.20;;;11.17;;
7683;SDS011;3884;48.616;12.872;2022-10-30T05:52:23;18.90;;;12.63;;
7683;SDS011;3884;48.616;12.872;2022-10-30T05:54:51;14.63;;;11.83;;
7683;SDS011;3884;48.616;12.872;2022-10-30T05:57:49;13.57;;;9.10;;
7683;SDS011;3884;48.616;12.872;2022-10-30T06:00:20;15.93;;;12.13;;
7683;SDS011;3884;48.616;12.872;2022-10-30T06:02:47;17.97;;;11.17;;
7683;SDS011;3884;48.616;12.872;2022-10-30T06:05:15;23.90;;;13.13;;
7683;SDS011;3884;48.616;12.872;2022-10-30T06:07:42;18.83;;;12.80;;
7683;SDS011;3884;48.616;12.872;2022-10-30T06:10:09;18.07;;;11.80;;
7683;SDS011;3884;48.616;12.872;2022-10-30T06:12:58;17.93;;;12.37;;
7683;SDS011;3884;48.616;12.872;2022-10-30T06:15:34;16.03;;;12.07;;
7683;SDS011;3884;48.616;12.872;2022-10-30T06:18:01;17.93;;;13.10;;
7683;SDS011;3884;48.616;12.872;2022-10-30T06:20:49;18.23;;;12.80;;
7683;SDS011;3884;48.616;12.872;2022-10-30T06:23:25;18.33;;;13.37;;
7683;SDS011;3884;48.616;12.872;2022-10-30T06:26:05;21.00;;;13.37;;
7683;SDS011;3884;48.616;12.872;2022-10-30T06:28:37;21.23;;;13.20;;
7683;SDS011;3884;48.616;12.872;2022-10-30T06:31:04;18.83;;;13.30;;
7683;SDS011;3884;48.616;12.872;2022-10-30T06:33:32;19.20;;;12.53;;
7683;SDS011;3884;48.616;12.872;2022-10-30T06:36:00;14.87;;;11.00;;
7683;SDS011;3884;48.616;12.872;2022-10-30T06:38:27;17.50;;;12.20;;
7683;SDS011;3884;48.616;12.872;2022-10-30T06:40:54;16.77;;;11.27;;
7683;SDS011;3884;48.616;12.872;2022-10-30T06:43:24;17.47;;;13.27;;
7683;SDS011;3884;48.616;12.872;2022-10-30T06:45:58;18.80;;;13.87;;
7683;SDS011;3884;48.616;12.872;2022-10-30T06:48:26;21.40;;;12.97;;
7683;SDS011;3884;48.616;12.872;2022-10-30T06:50:54;16.60;;;12.67;;
7683;SDS011;3884;48.616;12.872;2022-10-30T06:53:24;19.07;;;12.37;;
7683;SDS011;3884;48.616;12.872;2022-10-30T06:55:54;17.67;;;13.67;;
7683;SDS011;3884;48.616;12.872;2022-10-30T06:58:38;19.87;;;14.63;;
7683;SDS011;3884;48.616;12.872;2022-10-30T07:01:10;21.23;;;14.80;;
7683;SDS011;3884;48.616;12.872;2022-10-30T07:03:56;18.40;;;13.37;;
7683;SDS011;3884;48.616;12.872;2022-10-30T07:06:23;18.63;;;12.50;;
7683;SDS011;3884;48.616;12.872;2022-10-30T07:08:50;16.43;;;11.87;;
7683;SDS011;3884;48.616;12.872;2022-10-30T07:11:17;19.23;;;13.67;;
7683;SDS011;3884;48.616;12.872;2022-10-30T07:14:14;18.87;;;12.83;;
7683;SDS011;3884;48.616;12.872;2022-10-30T07:16:57;20.80;;;13.57;;
7683;SDS011;3884;48.616;12.872;2022-10-30T07:19:27;19.20;;;13.60;;
7683;SDS011;3884;48.616;12.872;2022-10-30T07:21:55;16.87;;;13.73;;
7683;SDS011;3884;48.616;12.872;2022-10-30T07:24:23;19.47;;;13.67;;
7683;SDS011;3884;48.616;12.872;2022-10-30T07:27:22;16.77;;;13.80;;
7683;SDS011;3884;48.616;12.872;2022-10-30T07:29:59;23.07;;;16.10;;
7683;SDS011;3884;48.616;12.872;2022-10-30T07:32:38;27.37;;;21.13;;
7683;SDS011;3884;48.616;12.872;2022-10-30T07:35:18;28.83;;;20.43;;
7683;SDS011;3884;48.616;12.872;2022-10-30T07:38:00;25.53;;;18.40;;
7683;SDS011;3884;48.616;12.872;2022-10-30T07:40:39;26.73;;;18.17;;
7683;SDS011;3884;48.616;12.872;2022-10-30T07:43:14;25.80;;;17.40;;
7683;SDS011;3884;48.616;12.872;2022-10-30T07:45:53;22.37;;;16.83;;
7683;SDS011;3884;48.616;12.872;2022-10-30T07:48:31;23.53;;;17.90;;
7683;SDS011;3884;48.616;12.872;2022-10-30T07:51:06;25.10;;;16.30;;
7683;SDS011;3884;48.616;12.872;2022-10-30T07:53:33;21.63;;;15.63;;
7683;SDS011;3884;48.616;12.872;2022-10-30T07:56:02;27.10;;;17.93;;
7683;SDS011;3884;48.616;12.872;2022-10-30T07:59:08;23.10;;;16.93;;
7683;SDS011;3884;48.616;12.872;2022-10-30T08:01:55;23.10;;;17.13;;
7683;SDS011;3884;48.616;12.872;2022-10-30T08:04:42;20.17;;;15.53;;
7683;SDS011;3884;48.616;12.872;2022-10-30T08:07:29;24.07;;;16.97;;
7683;SDS011;3884;48.616;12.872;2022-10-30T08:09:56;23.37;;;16.20;;
7683;SDS011;3884;48.616;12.872;2022-10-30T08:12:24;22.80;;;16.87;;
7683;SDS011;3884;48.616;12.872;2022-10-30T08:14:52;24.53;;;15.97;;
7683;SDS011;3884;48.616;12.872;2022-10-30T08:17:20;20.43;;;16.07;;
7683;SDS011;3884;48.616;12.872;2022-10-30T08:19:49;20.23;;;15.20;;
7683;SDS011;3884;48.616;12.872;2022-10-30T08:22:17;17.33;;;14.53;;
7683;SDS011;3884;48.616;12.872;2022-10-30T08:24:53;18.50;;;14.57;;
7683;SDS011;3884;48.616;12.872;2022-10-30T08:27:20;21.97;;;14.07;;
7683;SDS011;3884;48.616;12.872;2022-10-30T08:29:47;19.83;;;13.40;;
7683;SDS011;3884;48.616;12.872;2022-10-30T08:32:14;20.13;;;14.87;;
7683;SDS011;3884;48.616;12.872;2022-10-30T08:35:20;19.27;;;14.00;;
7683;SDS011;3884;48.616;12.872;2022-10-30T08:37:48;19.00;;;12.90;;
7683;SDS011;3884;48.616;12.872;2022-10-30T08:40:16;21.83;;;14.20;;
7683;SDS011;3884;48.616;12.872;2022-10-30T08:42:55;20.63;;;13.93;;
7683;SDS011;3884;48.616;12.872;2022-10-30T08:45:24;27.07;;;17.73;;
7683;SDS011;3884;48.616;12.872;2022-10-30T08:48:17;22.63;;;14.03;;
7683;SDS011;3884;48.616;12.872;2022-10-30T08:50:46;18.70;;;13.27;;
7683;SDS011;3884;48.616;12.872;2022-10-30T08:53:19;14.57;;;11.33;;
7683;SDS011;3884;48.616;12.872;2022-10-30T08:55:49;16.63;;;12.07;;
7683;SDS011;3884;48.616;12.872;2022-10-30T08:58:25;16.27;;;11.30;;
7683;SDS011;3884;48.616;12.872;2022-10-30T09:00:53;16.30;;;11.03;;
7683;SDS011;3884;48.616;12.872;2022-10-30T09:03:38;15.23;;;11.60;;
7683;SDS011;3884;48.616;12.872;2022-10-30T09:06:31;16.07;;;10.47;;
7683;SDS011;3884;48.616;12.872;2022-10-30T09:09:37;14.77;;;10.93;;
7683;SDS011;3884;48.616;12.872;2022-10-30T09:12:05;15.57;;;11.20;;
7683;SDS011;3884;48.616;12.872;2022-10-30T09:14:38;16.50;;;10.30;;
7683;SDS011;3884;48.616;12.872;2022-10-30T09:17:07;13.10;;;10.10;;
7683;SDS011;3884;48.616;12.872;2022-10-30T09:19:35;15.70;;;10.47;;
7683;SDS011;3884;48.616;12.872;2022-10-30T09:22:05;17.20;;;10.37;;
7683;SDS011;3884;48.616;12.872;2022-10-30T09:24:37;16.13;;;10.63;;
7683;SDS011;3884;48.616;12.872;2022-10-30T09:27:23;16.77;;;10.37;;
7683;SDS011;3884;48.616;12.872;2022-10-30T09:29:54;15.77;;;10.27;;
7683;SDS011;3884;48.616;12.872;2022-10-30T09:32:23;16.67;;;10.17;;
7683;SDS011;3884;48.616;12.872;2022-10-30T09:35:01;13.23;;;10.33;;
7683;SDS011;3884;48.616;12.872;2022-10-30T09:37:35;16.03;;;10.13;;
7683;SDS011;3884;48.616;12.872;2022-10-30T09:40:06;15.27;;;10.03;;
7683;SDS011;3884;48.616;12.872;2022-10-30T09:42:42;16.63;;;10.77;;
7683;SDS011;3884;48.616;12.872;2022-10-30T09:45:18;14.40;;;9.87;;
7683;SDS011;3884;48.616;12.872;2022-10-30T09:48:15;15.37;;;10.60;;
7683;SDS011;3884;48.616;12.872;2022-10-30T09:51:25;15.73;;;10.50;;
7683;SDS011;3884;48.616;12.872;2022-10-30T09:54:13;15.47;;;11.27;;
7683;SDS011;3884;48.616;12.872;2022-10-30T09:56:51;13.57;;;10.90;;
7683;SDS011;3884;48.616;12.872;2022-10-30T09:59:27;16.20;;;10.30;;
7683;SDS011;3884;48.616;12.872;2022-10-30T10:02:03;12.53;;;8.93;;
7683;SDS011;3884;48.616;12.872;2022-10-30T10:04:40;14.30;;;9.10;;
7683;SDS011;3884;48.616;12.872;2022-10-30T10:07:14;16.50;;;9.87;;
7683;SDS011;3884;48.616;12.872;2022-10-30T10:09:56;15.20;;;9.53;;
7683;SDS011;3884;48.616;12.872;2022-10-30T10:12:49;13.70;;;10.13;;
7683;SDS011;3884;48.616;12.872;2022-10-30T10:15:19;16.13;;;10.20;;
7683;SDS011;3884;48.616;12.872;2022-10-30T10:17:57;16.77;;;10.50;;
7683;SDS011;3884;48.616;12.872;2022-10-30T10:20:27;16.10;;;10.93;;
7683;SDS011;3884;48.616;12.872;2022-10-30T10:22:58;14.30;;;9.80;;
7683;SDS011;3884;48.616;12.872;2022-10-30T10:25:32;13.27;;;9.70;;
7683;SDS011;3884;48.616;12.872;2022-10-30T10:28:06;14.37;;;10.40;;
7683;SDS011;3884;48.616;12.872;2022-10-30T10:30:45;12.60;;;10.13;;
7683;SDS011;3884;48.616;12.872;2022-10-30T10:33:24;14.57;;;10.40;;
7683;SDS011;3884;48.616;12.872;2022-10-30T10:36:08;11.63;;;8.57;;
7683;SDS011;3884;48.616;12.872;2022-10-30T10:38:49;15.57;;;9.67;;
7683;SDS011;3884;48.616;12.872;2022-10-30T10:41:36;13.43;;;8.00;;
7683;SDS011;3884;48.616;12.872;2022-10-30T10:44:26;13.57;;;7.93;;
7683;SDS011;3884;48.616;12.872;2022-10-30T10:47:09;12.97;;;7.87;;
7683;SDS011;3884;48.616;12.872;2022-10-30T10:49:51;16.17;;;7.60;;
7683;SDS011;3884;48.616;12.872;2022-10-30T10:52:31;12.27;;;7.73;;
7683;SDS011;3884;48.616;12.872;2022-10-30T10:55:03;12.83;;;7.43;;
7683;SDS011;3884;48.616;12.872;2022-10-30T10:57:37;11.33;;;8.03;;
7683;SDS011;3884;48.616;12.872;2022-10-30T11:00:07;13.93;;;7.67;;
7683;SDS011;3884;48.616;12.872;2022-10-30T11:02:42;13.57;;;7.00;;
7683;SDS011;3884;48.616;12.872;2022-10-30T11:05:17;11.13;;;7.17;;
7683;SDS011;3884;48.616;12.872;2022-10-30T11:07:51;12.07;;;7.07;;
7683;SDS011;3884;48.616;12.872;2022-10-30T11:10:22;12.37;;;8.07;;
7683;SDS011;3884;48.616;12.872;2022-10-30T11:12:51;11.57;;;7.50;;
7683;SDS011;3884;48.616;12.872;2022-10-30T11:15:21;11.83;;;7.60;;
7683;SDS011;3884;48.616;12.872;2022-10-30T11:18:00;14.43;;;6.97;;
7683;SDS011;3884;48.616;12.872;2022-10-30T11:20:30;10.27;;;7.23;;
7683;SDS011;3884;48.616;12.872;2022-10-30T11:23:04;13.67;;;6.80;;
7683;SDS011;3884;48.616;12.872;2022-10-30T11:26:03;13.50;;;7.20;;
7683;SDS011;3884;48.616;12.872;2022-10-30T11:28:52;13.20;;;6.70;;
7683;SDS011;3884;48.616;12.872;2022-10-30T11:31:22;11.43;;;6.17;;
7683;SDS011;3884;48.616;12.872;2022-10-30T11:33:52;9.97;;;6.50;;
7683;SDS011;3884;48.616;12.872;2022-10-30T11:36:21;11.93;;;6.60;;
7683;SDS011;3884;48.616;12.872;2022-10-30T11:38:49;12.27;;;6.90;;
7683;SDS011;3884;48.616;12.872;2022-10-30T11:41:16;12.77;;;5.87;;
7683;SDS011;3884;48.616;12.872;2022-10-30T11:43:45;17.03;;;7.03;;
7683;SDS011;3884;48.616;12.872;2022-10-30T11:46:19;13.10;;;6.57;;
7683;SDS011;3884;48.616;12.872;2022-10-30T11:48:48;16.23;;;6.63;;
7683;SDS011;3884;48.616;12.872;2022-10-30T11:51:29;11.20;;;6.17;;
7683;SDS011;3884;48.616;12.872;2022-10-30T11:54:02;12.27;;;5.83;;
7683;SDS011;3884;48.616;12.872;2022-10-30T11:56:30;12.67;;;6.00;;
7683;SDS011;3884;48.616;12.872;2022-10-30T11:59:01;13.07;;;6.00;;
7683;SDS011;3884;48.616;12.872;2022-10-30T12:01:32;9.43;;;5.70;;
7683;SDS011;3884;48.616;12.872;2022-10-30T12:04:12;10.80;;;5.47;;
7683;SDS011;3884;48.616;12.872;2022-10-30T12:06:41;10.00;;;5.90;;
7683;SDS011;3884;48.616;12.872;2022-10-30T12:09:12;13.03;;;5.40;;
7683;SDS011;3884;48.616;12.872;2022-10-30T12:11:45;8.90;;;5.77;;
7683;SDS011;3884;48.616;12.872;2022-10-30T12:14:14;10.80;;;5.10;;
7683;SDS011;3884;48.616;12.872;2022-10-30T12:16:45;10.53;;;5.27;;
7683;SDS011;3884;48.616;12.872;2022-10-30T12:19:14;11.47;;;5.17;;
7683;SDS011;3884;48.616;12.872;2022-10-30T12:21:43;15.40;;;5.90;;
7683;SDS011;3884;48.616;12.872;2022-10-30T12:24:15;10.00;;;4.97;;
7683;SDS011;3884;48.616;12.872;2022-10-30T12:26:45;7.33;;;4.97;;
7683;SDS011;3884;48.616;12.872;2022-10-30T12:29:14;11.50;;;5.67;;
7683;SDS011;3884;48.616;12.872;2022-10-30T12:31:47;11.03;;;6.07;;
7683;SDS011;3884;48.616;12.872;2022-10-30T12:34:23;11.10;;;5.60;;
7683;SDS011;3884;48.616;12.872;2022-10-30T12:37:02;17.43;;;7.10;;
7683;SDS011;3884;48.616;12.872;2022-10-30T12:39:41;13.13;;;6.70;;
7683;SDS011;3884;48.616;12.872;2022-10-30T12:42:13;10.27;;;6.63;;
7683;SDS011;3884;48.616;12.872;2022-10-30T12:44:42;11.13;;;6.53;;
7683;SDS011;3884;48.616;12.872;2022-10-30T12:47:16;12.20;;;6.43;;
7683;SDS011;3884;48.616;12.872;2022-10-30T12:49:49;10.33;;;6.47;;
7683;SDS011;3884;48.616;12.872;2022-10-30T12:52:18;15.07;;;7.07;;
7683;SDS011;3884;48.616;12.872;2022-10-30T12:54:49;11.60;;;6.93;;
7683;SDS011;3884;48.616;12.872;2022-10-30T12:57:21;14.20;;;7.10;;
7683;SDS011;3884;48.616;12.872;2022-10-30T12:59:56;11.13;;;6.87;;
7683;SDS011;3884;48.616;12.872;2022-10-30T13:02:35;12.83;;;7.63;;
7683;SDS011;3884;48.616;12.872;2022-10-30T13:08:11;12.47;;;7.47;;
7683;SDS011;3884;48.616;12.872;2022-10-30T13:10:44;10.83;;;6.80;;
7683;SDS011;3884;48.616;12.872;2022-10-30T13:13:14;13.20;;;7.37;;
7683;SDS011;3884;48.616;12.872;2022-10-30T13:15:46;12.30;;;7.13;;
7683;SDS011;3884;48.616;12.872;2022-10-30T13:18:17;15.17;;;6.83;;
7683;SDS011;3884;48.616;12.872;2022-10-30T13:23:38;12.53;;;6.17;;
7683;SDS011;3884;48.616;12.872;2022-10-30T13:26:16;12.10;;;6.70;;
7683;SDS011;3884;48.616;12.872;2022-10-30T13:28:50;12.90;;;6.97;;
7683;SDS011;3884;48.616;12.872;2022-10-30T13:31:26;11.07;;;6.67;;
7683;SDS011;3884;48.616;12.872;2022-10-30T13:34:04;10.43;;;6.27;;
7683;SDS011;3884;48.616;12.872;2022-10-30T13:36:42;15.73;;;6.37;;
7683;SDS011;3884;48.616;12.872;2022-10-30T13:39:19;16.57;;;6.70;;
7683;SDS011;3884;48.616;12.872;2022-10-30T13:41:58;13.20;;;6.63;;
7683;SDS011;3884;48.616;12.872;2022-10-30T13:44:37;13.83;;;6.63;;
7683;SDS011;3884;48.616;12.872;2022-10-30T13:47:15;10.50;;;6.53;;
7683;SDS011;3884;48.616;12.872;2022-10-30T13:49:56;10.03;;;6.20;;
7683;SDS011;3884;48.616;12.872;2022-10-30T13:52:37;15.33;;;6.83;;
7683;SDS011;3884;48.616;12.872;2022-10-30T13:55:12;10.17;;;6.53;;
7683;SDS011;3884;48.616;12.872;2022-10-30T13:57:48;7.50;;;6.00;;
7683;SDS011;3884;48.616;12.872;2022-10-30T14:00:21;9.60;;;6.17;;
7683;SDS011;3884;48.616;12.872;2022-10-30T14:03:01;13.33;;;5.73;;
7683;SDS011;3884;48.616;12.872;2022-10-30T14:05:43;14.17;;;5.50;;
7683;SDS011;3884;48.616;12.872;2022-10-30T14:08:18;10.70;;;5.77;;
7683;SDS011;3884;48.616;12.872;2022-10-30T14:10:55;9.80;;;5.80;;
7683;SDS011;3884;48.616;12.872;2022-10-30T14:13:24;11.47;;;5.93;;
7683;SDS011;3884;48.616;12.872;2022-10-30T14:15:53;8.83;;;5.70;;
7683;SDS011;3884;48.616;12.872;2022-10-30T14:18:29;10.20;;;6.30;;
7683;SDS011;3884;48.616;12.872;2022-10-30T14:24:10;14.63;;;6.17;;
7683;SDS011;3884;48.616;12.872;2022-10-30T14:26:39;11.03;;;6.13;;
7683;SDS011;3884;48.616;12.872;2022-10-30T14:29:35;11.33;;;5.83;;
7683;SDS011;3884;48.616;12.872;2022-10-30T14:35:32;11.93;;;6.37;;
7683;SDS011;3884;48.616;12.872;2022-10-30T14:38:21;9.33;;;6.40;;
7683;SDS011;3884;48.616;12.872;2022-10-30T14:50:09;9.17;;;5.60;;
7683;SDS011;3884;48.616;12.872;2022-10-30T14:52:42;12.67;;;6.27;;
7683;SDS011;3884;48.616;12.872;2022-10-30T14:55:27;8.00;;;5.50;;
7683;SDS011;3884;48.616;12.872;2022-10-30T15:00:45;10.30;;;5.80;;
7683;SDS011;3884;48.616;12.872;2022-10-30T15:06:05;10.77;;;5.77;;
7683;SDS011;3884;48.616;12.872;2022-10-30T15:11:53;9.73;;;5.80;;
7683;SDS011;3884;48.616;12.872;2022-10-30T15:14:27;12.27;;;5.80;;
7683;SDS011;3884;48.616;12.872;2022-10-30T15:16:57;12.17;;;5.70;;
7683;SDS011;3884;48.616;12.872;2022-10-30T15:19:24;10.23;;;6.23;;
7683;SDS011;3884;48.616;12.872;2022-10-30T15:21:53;11.60;;;5.57;;
7683;SDS011;3884;48.616;12.872;2022-10-30T15:24:23;7.70;;;5.47;;
7683;SDS011;3884;48.616;12.872;2022-10-30T15:26:54;10.37;;;5.70;;
7683;SDS011;3884;48.616;12.872;2022-10-30T15:29:24;9.60;;;5.87;;
7683;SDS011;3884;48.616;12.872;2022-10-30T15:31:58;9.17;;;5.37;;
7683;SDS011;3884;48.616;12.872;2022-10-30T15:34:26;12.93;;;6.13;;
7683;SDS011;3884;48.616;12.872;2022-10-30T15:36:54;10.57;;;6.43;;
7683;SDS011;3884;48.616;12.872;2022-10-30T15:39:22;11.47;;;6.33;;
7683;SDS011;3884;48.616;12.872;2022-10-30T15:41:51;13.13;;;6.00;;
7683;SDS011;3884;48.616;12.872;2022-10-30T15:44:22;11.40;;;6.80;;
7683;SDS011;3884;48.616;12.872;2022-10-30T15:46:53;13.40;;;8.33;;